Delta Virtual Airport Information Service

Southwest Florida International Airport

ICAO: KRSW Country: United States
Latitude: 26.5362 Longitude: -81.7551
Latest Arrival : DAL2290 (KATL-KRSW) Latest Departure : DALJUMP (KRSW-KATL)


WX CaptureLIVE
Data provided by noaa.gov | Fetched at 11:55:13

METAR : KRSW 151553Z 25012KT 10SM CLR 30/19 A3004 RMK AO2 SLP171 T03000194

TAF : KRSW 151142Z 1512/1612 20005KT P6SM VCTS FEW025CB SCT200 FM151500 23008KT 6SM SHRA VCTS BKN040CB FM152100 24008KT P6SM VCTS FEW040CB SCT150 FM160000 25005KT P6SM SCT035 BKN200 FM160600 VRB03KT P6SM VCTS BKN035CB


Runway Data for KRSW
Data provided by openaviationdata.com

Runway ID Mag Var Hdg Length Elevation Surface ILS Freq ILS Id ILS Slope
6 -3 57° 12007 ft 30 ft Asphalt 111.5 IRSW 3
24 -3 237° 12007 ft 30 ft Asphalt -- -- --

Southwest Florida International Airport, United States
Use only for reference purposes



Not for navigational purposes.